Time;durP1;ratioP1;P1;durP2;ratioP2;P2;SDS_P1;SDS_P2;PMS_P1;PMS_P2;Temp;Humidity;BMP_temperature;BMP_pressure;BME280_temperature;BME280_humidity;BME280_pressure;Samples;Min_cycle;Max_cycle;Signal;HPM_P1;HPM_P2
2021/10/07 00:01:08;;;;;;;3.78;1.42;;;10.80;22.50;;;;;;5074793;28;20048;-68
2021/10/07 00:03:55;;;;;;;3.72;1.48;;;10.80;22.10;;;;;;5072489;28;20055;-68
2021/10/07 00:06:25;;;;;;;2.80;1.50;;;10.80;22.40;;;;;;5066970;28;20088;-68
2021/10/07 00:08:58;;;;;;;2.53;1.30;;;10.90;22.60;;;;;;5070936;28;20127;-68
2021/10/07 00:11:31;;;;;;;3.60;1.60;;;10.90;22.00;;;;;;5074515;28;20491;-68
2021/10/07 00:14:04;;;;;;;3.38;1.60;;;10.90;22.40;;;;;;5070698;28;20144;-68
2021/10/07 00:16:37;;;;;;;4.20;1.73;;;10.90;22.60;;;;;;5075262;28;20530;-68
2021/10/07 00:19:07;;;;;;;4.80;1.50;;;10.90;22.60;;;;;;5072763;28;20048;-69
2021/10/07 00:21:37;;;;;;;2.25;1.40;;;10.90;22.00;;;;;;5073104;28;20496;-68
2021/10/07 00:24:08;;;;;;;2.53;1.40;;;10.90;22.60;;;;;;5070929;28;20048;-68
2021/10/07 00:26:39;;;;;;;2.72;1.67;;;10.90;22.20;;;;;;5069431;28;20048;-69
2021/10/07 00:29:33;;;;;;;1.40;1.30;;;10.90;22.60;;;;;;5074509;28;20062;-69
2021/10/07 00:32:12;;;;;;;3.85;1.60;;;10.90;22.70;;;;;;5073455;28;20044;-69
2021/10/07 00:34:55;;;;;;;2.88;1.40;;;10.90;22.60;;;;;;5071932;28;20055;-69
2021/10/07 00:37:29;;;;;;;2.78;1.80;;;10.90;22.70;;;;;;5070263;28;20051;-69
2021/10/07 00:39:56;;;;;;;4.50;1.40;;;10.90;23.20;;;;;;5071842;28;20048;-69
2021/10/07 00:42:31;;;;;;;3.63;1.58;;;10.80;23.70;;;;;;5074004;28;20040;-69
2021/10/07 00:45:02;;;;;;;2.47;1.50;;;10.80;24.60;;;;;;5071958;28;20048;-68
2021/10/07 00:47:30;;;;;;;3.08;1.70;;;10.80;25.00;;;;;;5074476;28;20131;-69
2021/10/07 00:50:04;;;;;;;4.45;1.45;;;10.80;25.50;;;;;;5055726;28;20048;-68
2021/10/07 00:52:32;;;;;;;4.13;1.50;;;10.80;25.50;;;;;;5073856;28;20087;-68
2021/10/07 00:55:03;;;;;;;3.72;1.60;;;10.80;25.70;;;;;;5068664;28;20052;-70
2021/10/07 00:57:33;;;;;;;3.63;1.65;;;10.80;25.70;;;;;;5053125;28;20040;-69
2021/10/07 01:00:01;;;;;;;2.42;1.95;;;10.80;25.90;;;;;;5074077;28;20044;-68
2021/10/07 01:02:29;;;;;;;4.00;1.70;;;10.70;26.50;;;;;;5071466;28;20056;-69
2021/10/07 01:05:00;;;;;;;3.38;1.70;;;10.70;26.40;;;;;;5067670;28;20049;-69
2021/10/07 01:07:30;;;;;;;3.60;1.70;;;10.80;26.80;;;;;;5068590;28;20052;-69
2021/10/07 01:09:58;;;;;;;2.50;1.70;;;10.70;26.40;;;;;;5074061;28;20055;-69
2021/10/07 01:12:28;;;;;;;3.38;2.05;;;10.80;26.50;;;;;;5073933;28;20044;-69
2021/10/07 01:14:58;;;;;;;2.28;1.80;;;10.70;27.00;;;;;;5066236;28;20041;-69
2021/10/07 01:17:29;;;;;;;3.33;1.55;;;10.80;27.00;;;;;;5072086;28;20036;-68
2021/10/07 01:20:02;;;;;;;2.65;2.03;;;10.80;26.70;;;;;;5058734;28;20052;-68
2021/10/07 01:22:34;;;;;;;3.85;1.98;;;10.80;27.20;;;;;;5075824;28;20043;-69
2021/10/07 01:25:07;;;;;;;3.22;1.88;;;10.80;27.20;;;;;;5077330;28;20043;-69
2021/10/07 01:27:42;;;;;;;3.58;2.17;;;10.80;27.70;;;;;;5073328;28;20040;-68
2021/10/07 01:30:13;;;;;;;3.65;2.08;;;10.70;27.70;;;;;;5076844;28;20040;-68
2021/10/07 01:32:43;;;;;;;2.80;1.90;;;10.80;28.30;;;;;;5057259;28;20098;-68
2021/10/07 01:35:14;;;;;;;4.82;1.70;;;10.80;27.50;;;;;;5073590;28;20036;-67
2021/10/07 01:37:43;;;;;;;4.25;1.83;;;10.80;27.90;;;;;;5074880;28;20147;-68
2021/10/07 01:40:17;;;;;;;5.53;2.00;;;10.80;27.70;;;;;;5077780;28;20415;-68
2021/10/07 01:42:45;;;;;;;2.80;1.98;;;10.80;27.80;;;;;;5062822;28;20075;-68
2021/10/07 01:45:20;;;;;;;3.90;2.10;;;10.80;27.00;;;;;;5074304;28;20071;-68
2021/10/07 01:47:48;;;;;;;3.90;2.10;;;10.80;26.90;;;;;;5072731;28;20067;-68
2021/10/07 01:50:19;;;;;;;4.32;2.08;;;10.80;27.00;;;;;;5070574;28;20048;-68
2021/10/07 01:52:53;;;;;;;3.10;2.13;;;10.80;27.00;;;;;;5075493;28;20047;-68
2021/10/07 01:55:21;;;;;;;4.43;2.15;;;10.80;27.20;;;;;;5061817;28;20147;-68
2021/10/07 01:57:48;;;;;;;3.60;2.40;;;10.80;27.00;;;;;;5075388;28;20072;-67
2021/10/07 02:00:17;;;;;;;4.07;2.08;;;10.90;26.80;;;;;;5077881;28;20421;-69
2021/10/07 02:02:51;;;;;;;3.85;2.50;;;10.90;26.80;;;;;;5073770;28;20078;-68
2021/10/07 02:05:21;;;;;;;3.55;2.53;;;10.90;27.40;;;;;;5057169;28;20412;-68
2021/10/07 02:07:48;;;;;;;4.80;2.53;;;10.90;27.80;;;;;;5076179;28;20086;-69
2021/10/07 02:10:17;;;;;;;2.75;2.03;;;10.80;28.50;;;;;;5041659;28;20471;-68
2021/10/07 02:12:47;;;;;;;4.93;2.60;;;10.70;29.40;;;;;;5071225;28;20053;-68
2021/10/07 02:15:18;;;;;;;4.00;2.47;;;10.70;30.60;;;;;;5071830;28;20071;-68
2021/10/07 02:17:49;;;;;;;5.75;2.90;;;10.70;31.20;;;;;;5074148;28;20051;-68
2021/10/07 02:20:21;;;;;;;4.75;2.35;;;10.70;30.90;;;;;;5073174;28;20158;-69
2021/10/07 02:22:55;;;;;;;4.18;2.90;;;10.70;31.20;;;;;;5074927;28;20438;-69
2021/10/07 02:25:23;;;;;;;4.72;2.47;;;10.70;30.70;;;;;;5070362;28;20488;-69
2021/10/07 02:27:51;;;;;;;5.57;3.15;;;10.70;30.30;;;;;;5076492;28;20044;-68
2021/10/07 02:30:19;;;;;;;4.90;3.20;;;10.70;30.20;;;;;;5073163;28;20068;-68
2021/10/07 02:32:52;;;;;;;10.27;3.08;;;10.60;31.60;;;;;;5074013;28;20067;-68
2021/10/07 02:35:23;;;;;;;4.38;2.83;;;10.60;30.90;;;;;;5069781;28;20056;-68
2021/10/07 02:37:51;;;;;;;4.35;2.97;;;10.60;31.40;;;;;;5072066;28;20040;-68
2021/10/07 02:40:21;;;;;;;9.48;3.17;;;10.70;31.40;;;;;;5060081;28;20109;-68
2021/10/07 02:42:50;;;;;;;4.75;2.45;;;10.70;29.60;;;;;;5077993;28;20564;-68
2021/10/07 02:45:23;;;;;;;6.35;2.72;;;10.70;30.00;;;;;;5076213;28;20074;-68
2021/10/07 02:47:53;;;;;;;5.28;2.85;;;10.70;30.90;;;;;;5073370;28;20048;-68
2021/10/07 02:50:27;;;;;;;5.05;3.08;;;10.70;31.20;;;;;;5073974;28;20412;-68
2021/10/07 02:52:58;;;;;;;5.28;2.70;;;10.70;31.40;;;;;;5070625;28;20043;-68
2021/10/07 02:55:37;;;;;;;6.03;2.60;;;10.70;32.00;;;;;;5073170;28;21894;-68
2021/10/07 02:58:08;;;;;;;4.18;2.50;;;10.70;31.90;;;;;;5075349;28;20040;-69
2021/10/07 03:00:36;;;;;;;6.72;2.95;;;10.70;30.90;;;;;;5075972;28;20079;-69
2021/10/07 03:03:08;;;;;;;3.85;2.67;;;10.70;30.60;;;;;;5075243;28;20452;-69
2021/10/07 03:05:37;;;;;;;6.20;2.47;;;10.80;30.40;;;;;;5073119;28;20044;-67
2021/10/07 03:08:06;;;;;;;6.00;2.88;;;10.70;31.20;;;;;;5071312;28;20071;-68
2021/10/07 03:10:35;;;;;;;4.30;2.67;;;10.70;31.60;;;;;;5076551;28;20050;-68
2021/10/07 03:13:03;;;;;;;4.88;2.85;;;10.70;30.80;;;;;;5075436;28;20048;-68
2021/10/07 03:15:34;;;;;;;7.07;3.17;;;10.70;30.50;;;;;;5060888;28;20045;-67
2021/10/07 03:18:03;;;;;;;7.93;3.45;;;10.80;30.30;;;;;;5074125;28;20047;-68
2021/10/07 03:20:33;;;;;;;3.75;2.80;;;10.80;30.80;;;;;;5075936;28;20032;-67
2021/10/07 03:23:02;;;;;;;5.13;2.83;;;10.80;30.80;;;;;;5059228;28;20093;-68
2021/10/07 03:25:34;;;;;;;8.20;2.95;;;10.80;30.60;;;;;;5070917;28;20051;-68
2021/10/07 03:28:05;;;;;;;5.57;3.13;;;10.80;30.70;;;;;;5073786;28;20872;-67
2021/10/07 03:30:33;;;;;;;6.75;2.88;;;10.80;30.10;;;;;;5072103;28;20045;-67
2021/10/07 03:33:06;;;;;;;4.28;3.20;;;10.90;29.90;;;;;;5073868;28;20064;-68
2021/10/07 03:35:34;;;;;;;5.28;3.00;;;10.90;29.50;;;;;;5067535;28;20491;-68
2021/10/07 03:38:04;;;;;;;6.13;2.72;;;10.90;29.50;;;;;;5076132;28;20131;-67
2021/10/07 03:40:32;;;;;;;7.53;3.63;;;10.80;30.60;;;;;;5073778;28;20044;-68
2021/10/07 03:43:04;;;;;;;8.23;2.63;;;10.80;31.00;;;;;;5077391;28;20422;-68
2021/10/07 03:45:36;;;;;;;5.40;2.97;;;10.90;30.60;;;;;;5070828;28;20052;-68
2021/10/07 03:48:04;;;;;;;6.32;2.58;;;10.90;30.40;;;;;;5074722;28;20051;-68
2021/10/07 03:50:38;;;;;;;2.50;2.10;;;10.90;29.50;;;;;;5075801;28;20105;-68
2021/10/07 03:53:08;;;;;;;5.32;2.75;;;10.80;30.00;;;;;;5074412;28;20136;-68
2021/10/07 03:55:39;;;;;;;6.65;2.47;;;10.80;31.30;;;;;;5069829;28;20048;-68
2021/10/07 03:58:10;;;;;;;3.50;2.70;;;10.80;31.20;;;;;;5071935;28;20036;-68
2021/10/07 04:00:39;;;;;;;5.15;2.50;;;10.80;32.00;;;;;;5073223;28;20128;-68
2021/10/07 04:03:08;;;;;;;6.25;2.92;;;10.80;32.70;;;;;;5071108;28;20127;-68
2021/10/07 04:05:36;;;;;;;5.15;2.50;;;10.80;33.20;;;;;;5067100;28;20044;-68
2021/10/07 04:08:06;;;;;;;4.97;2.83;;;10.80;33.50;;;;;;5070533;28;20236;-68
2021/10/07 04:10:37;;;;;;;5.13;2.65;;;10.80;33.40;;;;;;5073535;28;20079;-68
2021/10/07 04:13:05;;;;;;;4.75;3.00;;;10.80;33.60;;;;;;5075451;28;20048;-68
2021/10/07 04:15:33;;;;;;;6.30;3.33;;;10.70;34.30;;;;;;5070771;28;20151;-66
2021/10/07 04:18:05;;;;;;;5.25;3.30;;;10.70;33.40;;;;;;5068707;28;20037;-68
2021/10/07 04:20:33;;;;;;;6.20;2.95;;;10.70;33.60;;;;;;5060617;28;20135;-68
2021/10/07 04:23:01;;;;;;;5.65;2.83;;;10.70;33.00;;;;;;5070943;28;20127;-68
2021/10/07 04:25:31;;;;;;;3.42;2.58;;;10.70;33.10;;;;;;5075846;28;20080;-68
2021/10/07 04:28:06;;;;;;;3.70;2.83;;;10.70;31.80;;;;;;5069319;28;20127;-68
2021/10/07 04:30:34;;;;;;;4.47;2.90;;;10.70;32.20;;;;;;5074895;28;20101;-68
2021/10/07 04:33:04;;;;;;;6.70;2.90;;;10.80;31.90;;;;;;5074478;28;20044;-67
2021/10/07 04:35:33;;;;;;;3.58;2.90;;;10.70;31.60;;;;;;5051199;28;20126;-67
2021/10/07 04:38:01;;;;;;;4.90;2.90;;;10.80;32.50;;;;;;5053290;28;20119;-68
2021/10/07 04:40:31;;;;;;;3.95;2.85;;;10.70;32.10;;;;;;5074854;28;20139;-67
2021/10/07 04:43:00;;;;;;;7.18;3.13;;;10.80;32.30;;;;;;5074400;28;20051;-68
2021/10/07 04:45:32;;;;;;;5.82;3.10;;;10.70;32.00;;;;;;5066643;28;20048;-68
2021/10/07 04:48:02;;;;;;;6.68;3.20;;;10.70;32.90;;;;;;5069350;28;20102;-68
2021/10/07 04:50:35;;;;;;;6.85;3.72;;;10.70;33.40;;;;;;5073814;28;20090;-68
2021/10/07 04:53:06;;;;;;;6.78;2.92;;;10.70;32.60;;;;;;5073156;28;20068;-68
2021/10/07 04:55:35;;;;;;;7.07;3.15;;;10.70;32.40;;;;;;5066799;28;20052;-68
2021/10/07 04:58:03;;;;;;;5.88;3.22;;;10.70;32.40;;;;;;5054666;28;20821;-68
2021/10/07 05:00:35;;;;;;;7.75;3.58;;;10.70;32.50;;;;;;5075353;28;20045;-68
2021/10/07 05:03:07;;;;;;;8.55;3.45;;;10.70;32.20;;;;;;5076190;28;20048;-68
2021/10/07 05:05:35;;;;;;;7.82;3.35;;;10.70;33.20;;;;;;5071876;28;20127;-68
2021/10/07 05:08:05;;;;;;;6.07;3.20;;;10.70;33.20;;;;;;5069593;28;20138;-67
2021/10/07 05:10:33;;;;;;;5.95;3.95;;;10.70;32.50;;;;;;5062100;28;20427;-69
2021/10/07 05:13:02;;;;;;;6.78;3.72;;;10.70;32.30;;;;;;5068597;28;20044;-68
2021/10/07 05:15:40;;;;;;;5.07;3.22;;;10.70;32.90;;;;;;5069019;28;20032;-66
2021/10/07 05:18:09;;;;;;;5.55;4.05;;;10.70;33.00;;;;;;5071253;28;20569;-69
2021/10/07 05:20:38;;;;;;;8.25;4.70;;;10.60;32.10;;;;;;5072159;28;20951;-67
2021/10/07 05:23:08;;;;;;;4.72;3.35;;;10.70;30.60;;;;;;5050026;28;20624;-67
2021/10/07 05:25:36;;;;;;;6.15;3.80;;;10.70;30.80;;;;;;5066245;28;20119;-68
2021/10/07 05:28:05;;;;;;;5.05;3.50;;;10.60;30.60;;;;;;5071304;28;20053;-68
2021/10/07 05:30:34;;;;;;;12.68;3.90;;;10.60;31.00;;;;;;5072117;28;20070;-67
2021/10/07 05:33:03;;;;;;;9.50;4.10;;;10.70;31.70;;;;;;5070082;28;20044;-66
2021/10/07 05:35:33;;;;;;;10.27;4.00;;;10.80;31.20;;;;;;5069365;28;20450;-68
2021/10/07 05:38:01;;;;;;;5.40;3.70;;;10.80;31.70;;;;;;5073310;28;20112;-68
2021/10/07 05:40:30;;;;;;;7.50;3.53;;;10.80;32.20;;;;;;5075989;28;20083;-67
2021/10/07 05:42:58;;;;;;;10.68;3.70;;;10.90;32.60;;;;;;5067499;28;20048;-68
2021/10/07 05:45:26;;;;;;;6.95;3.28;;;10.90;32.50;;;;;;5068982;28;20120;-69
2021/10/07 05:47:56;;;;;;;7.75;3.63;;;10.80;33.40;;;;;;5068002;28;20130;-67
2021/10/07 05:50:27;;;;;;;9.07;3.70;;;10.80;33.90;;;;;;5076151;28;20101;-68
2021/10/07 05:52:57;;;;;;;9.10;3.80;;;10.80;33.70;;;;;;5068874;28;20049;-67
2021/10/07 05:55:25;;;;;;;9.50;3.92;;;10.80;34.10;;;;;;5070223;28;20190;-67
2021/10/07 05:57:53;;;;;;;5.60;3.58;;;10.80;35.30;;;;;;5065364;28;20044;-68
2021/10/07 06:00:24;;;;;;;7.93;4.10;;;10.80;36.10;;;;;;5073580;28;20048;-67
2021/10/07 06:02:52;;;;;;;8.57;4.25;;;10.90;36.60;;;;;;5068828;28;20044;-69
2021/10/07 06:05:20;;;;;;;10.13;4.43;;;10.80;36.80;;;;;;5073083;28;20128;-68
2021/10/07 06:07:49;;;;;;;9.50;4.43;;;10.90;37.30;;;;;;5056711;28;20127;-68
2021/10/07 06:10:17;;;;;;;9.43;5.03;;;10.90;36.60;;;;;;5079192;28;20128;-67
2021/10/07 06:12:51;;;;;;;9.95;4.10;;;10.80;36.00;;;;;;5079196;28;20067;-68
2021/10/07 06:15:35;;;;;;;5.57;4.55;;;10.90;36.70;;;;;;5073783;28;20131;-68
2021/10/07 06:18:06;;;;;;;7.13;4.45;;;10.90;36.70;;;;;;5072702;28;20110;-67
2021/10/07 06:20:34;;;;;;;10.55;4.88;;;10.90;36.10;;;;;;5074457;28;20044;-68
2021/10/07 06:23:08;;;;;;;8.60;4.78;;;10.90;35.60;;;;;;5071971;28;20126;-67
2021/10/07 06:25:37;;;;;;;6.70;4.88;;;10.90;34.60;;;;;;5073372;28;20052;-68
2021/10/07 06:28:07;;;;;;;8.45;4.50;;;10.90;34.40;;;;;;5069994;28;20040;-68
2021/10/07 06:30:35;;;;;;;10.93;4.93;;;10.90;33.50;;;;;;5067762;28;20064;-67
2021/10/07 06:33:05;;;;;;;6.30;4.65;;;10.90;33.60;;;;;;5069275;28;20048;-66
2021/10/07 06:35:34;;;;;;;9.45;4.72;;;10.90;32.70;;;;;;5069085;28;20074;-67
2021/10/07 06:38:04;;;;;;;7.75;5.18;;;10.90;31.60;;;;;;5073614;28;20040;-67
2021/10/07 06:40:37;;;;;;;8.93;5.30;;;10.90;31.60;;;;;;5072026;28;20051;-67
2021/10/07 06:43:08;;;;;;;7.93;5.22;;;10.90;32.40;;;;;;5068920;28;20151;-67
2021/10/07 06:45:36;;;;;;;8.80;5.47;;;10.90;32.00;;;;;;5073394;28;20148;-67
2021/10/07 06:48:10;;;;;;;7.60;5.30;;;10.80;32.80;;;;;;5074767;28;20065;-68
2021/10/07 06:50:41;;;;;;;9.77;6.18;;;10.70;33.30;;;;;;5075386;28;20113;-67
2021/10/07 06:53:09;;;;;;;11.10;5.90;;;10.70;33.20;;;;;;5070849;28;20072;-67
2021/10/07 06:55:42;;;;;;;7.78;5.75;;;10.80;33.50;;;;;;5067462;28;20565;-68
2021/10/07 06:58:10;;;;;;;7.78;5.10;;;10.80;33.30;;;;;;5068354;28;20080;-68
2021/10/07 07:00:46;;;;;;;11.32;6.05;;;10.90;32.00;;;;;;5068525;28;20123;-68
2021/10/07 07:03:15;;;;;;;9.60;5.70;;;10.70;32.80;;;;;;5067010;28;20044;-67
2021/10/07 07:05:44;;;;;;;8.73;5.90;;;10.70;32.90;;;;;;5068199;28;20052;-68
2021/10/07 07:08:16;;;;;;;13.13;6.75;;;10.70;32.50;;;;;;5068174;28;20126;-67
2021/10/07 07:10:47;;;;;;;10.98;6.07;;;10.70;33.20;;;;;;5070653;28;20426;-67
2021/10/07 07:13:16;;;;;;;13.65;6.72;;;10.90;33.70;;;;;;5070458;28;20079;-67
2021/10/07 07:15:45;;;;;;;9.30;6.15;;;11.00;32.00;;;;;;5066212;28;20712;-68
2021/10/07 07:18:17;;;;;;;10.70;6.10;;;11.00;33.00;;;;;;5069181;28;20549;-67
2021/10/07 07:20:49;;;;;;;11.52;6.05;;;11.10;31.10;;;;;;5067796;28;20102;-68
2021/10/07 07:23:17;;;;;;;9.15;6.18;;;11.00;30.20;;;;;;5069232;28;20050;-67
2021/10/07 07:25:47;;;;;;;13.07;6.95;;;11.10;30.20;;;;;;5066610;28;20302;-67
2021/10/07 07:28:19;;;;;;;14.05;6.85;;;10.80;29.40;;;;;;5069926;28;20052;-67
2021/10/07 07:30:49;;;;;;;11.23;6.85;;;10.90;32.60;;;;;;5068355;28;20102;-68
2021/10/07 07:33:22;;;;;;;11.23;7.03;;;11.00;32.50;;;;;;5065591;28;20049;-68
2021/10/07 07:35:51;;;;;;;12.73;6.88;;;11.00;31.30;;;;;;5072513;28;20043;-68
2021/10/07 07:38:22;;;;;;;11.52;7.45;;;11.20;29.70;;;;;;5072247;28;20136;-67
2021/10/07 07:40:51;;;;;;;11.88;7.22;;;11.20;28.90;;;;;;5068360;28;20048;-67
2021/10/07 07:43:20;;;;;;;16.92;8.20;;;11.20;29.70;;;;;;5069269;28;20114;-68
2021/10/07 07:45:49;;;;;;;11.80;7.85;;;11.30;29.40;;;;;;5063434;28;20128;-68
2021/10/07 07:48:21;;;;;;;9.18;7.30;;;11.30;28.50;;;;;;5065862;28;20393;-68
2021/10/07 07:50:52;;;;;;;11.43;8.00;;;11.40;28.00;;;;;;5069002;28;20102;-66
2021/10/07 07:53:20;;;;;;;12.07;8.05;;;11.30;28.20;;;;;;5068625;28;20127;-67
2021/10/07 07:55:51;;;;;;;10.23;7.38;;;11.20;28.00;;;;;;5067587;28;20052;-67
2021/10/07 07:58:21;;;;;;;12.27;7.80;;;11.20;28.70;;;;;;5067537;28;20067;-68
2021/10/07 08:00:49;;;;;;;10.55;7.95;;;11.40;27.80;;;;;;5068653;28;20044;-67
2021/10/07 08:03:19;;;;;;;14.07;8.30;;;11.50;26.50;;;;;;5069751;28;20135;-67
2021/10/07 08:05:47;;;;;;;12.13;8.75;;;11.60;26.10;;;;;;5069523;28;20142;-68
2021/10/07 08:08:19;;;;;;;14.50;8.70;;;11.60;25.40;;;;;;5064564;28;20080;-68
2021/10/07 08:10:48;;;;;;;14.70;9.23;;;11.40;25.60;;;;;;5068416;28;20112;-67
2021/10/07 08:13:26;;;;;;;15.07;8.85;;;11.50;26.00;;;;;;5066468;28;20089;-66
2021/10/07 08:15:54;;;;;;;17.15;9.05;;;11.80;24.40;;;;;;5067499;28;20048;-68
2021/10/07 08:18:23;;;;;;;10.70;7.97;;;11.60;24.30;;;;;;5067724;28;20044;-68
2021/10/07 08:20:52;;;;;;;15.02;8.90;;;11.80;23.30;;;;;;5060877;28;20032;-67
2021/10/07 08:23:28;;;;;;;11.00;8.20;;;12.00;23.90;;;;;;5061006;28;20467;-68
2021/10/07 08:26:00;;;;;;;13.73;8.73;;;12.30;22.10;;;;;;5051707;28;20045;-67
2021/10/07 08:28:35;;;;;;;20.52;9.02;;;12.20;19.70;;;;;;5057360;28;20048;-68
2021/10/07 08:31:06;;;;;;;12.73;8.35;;;12.30;20.10;;;;;;5044069;28;20075;-66
2021/10/07 08:33:34;;;;;;;12.45;8.18;;;12.30;16.60;;;;;;5045342;28;20048;-68
2021/10/07 08:36:05;;;;;;;10.70;7.32;;;12.30;18.30;;;;;;5048695;28;20133;-67
2021/10/07 08:38:33;;;;;;;13.80;8.13;;;12.30;16.60;;;;;;5048460;28;20087;-69
2021/10/07 08:41:02;;;;;;;10.82;7.97;;;12.20;17.90;;;;;;5047023;28;20045;-67
2021/10/07 08:43:34;;;;;;;10.57;8.18;;;12.00;17.60;;;;;;5048342;28;20044;-68
2021/10/07 08:46:10;;;;;;;9.38;7.25;;;12.30;16.30;;;;;;5045237;28;20045;-68
2021/10/07 08:48:42;;;;;;;13.47;8.47;;;12.30;15.80;;;;;;5053577;28;20044;-68
2021/10/07 08:51:10;;;;;;;11.32;7.55;;;12.50;16.40;;;;;;5046483;28;20086;-67
2021/10/07 08:53:40;;;;;;;9.10;6.38;;;12.40;14.20;;;;;;5049472;28;20756;-67
2021/10/07 08:56:09;;;;;;;10.20;7.57;;;12.00;16.30;;;;;;5046950;28;20259;-68
2021/10/07 08:58:38;;;;;;;14.52;8.77;;;12.20;16.60;;;;;;5045079;28;20080;-68
2021/10/07 09:01:07;;;;;;;12.73;7.38;;;12.30;18.10;;;;;;5049256;28;20049;-67
2021/10/07 09:03:42;;;;;;;9.55;7.13;;;12.30;15.90;;;;;;5050572;28;20040;-67
2021/10/07 09:06:13;;;;;;;12.27;8.10;;;12.60;13.40;;;;;;5049213;28;20147;-67
2021/10/07 09:08:48;;;;;;;11.05;8.18;;;12.90;13.40;;;;;;5049505;28;20052;-67
2021/10/07 09:11:26;;;;;;;10.70;7.80;;;13.40;10.50;;;;;;5049548;28;20140;-68
2021/10/07 09:14:04;;;;;;;9.18;6.50;;;13.30;10.00;;;;;;5044711;28;20353;-68
2021/10/07 09:16:43;;;;;;;14.50;7.00;;;13.40;8.10;;;;;;5043464;28;20521;-68
2021/10/07 09:19:17;;;;;;;8.95;7.30;;;13.40;8.60;;;;;;5053507;28;20473;-68
2021/10/07 09:21:50;;;;;;;11.68;7.40;;;13.40;8.70;;;;;;5048767;28;20043;-67
2021/10/07 09:24:29;;;;;;;14.43;7.03;;;13.30;8.40;;;;;;5045196;28;20072;-68
2021/10/07 09:27:03;;;;;;;9.45;7.53;;;13.30;9.00;;;;;;5046819;28;20091;-68
2021/10/07 09:29:44;;;;;;;9.73;7.35;;;13.40;8.40;;;;;;5046930;28;20048;-67
2021/10/07 09:32:24;;;;;;;11.82;7.72;;;13.60;6.60;;;;;;5046756;28;20045;-67
2021/10/07 09:34:57;;;;;;;10.73;7.40;;;13.60;7.40;;;;;;5049911;28;20045;-68
2021/10/07 09:37:34;;;;;;;10.02;7.18;;;13.70;6.60;;;;;;5053697;28;20119;-68
2021/10/07 09:40:10;;;;;;;9.95;7.25;;;13.10;7.40;;;;;;5070226;28;20048;-66
2021/10/07 09:42:40;;;;;;;7.38;6.30;;;12.80;7.00;;;;;;5054071;28;20065;-67
2021/10/07 09:45:18;;;;;;;10.38;6.80;;;13.00;8.70;;;;;;5048945;28;20124;-68
2021/10/07 09:47:48;;;;;;;9.05;6.95;;;12.80;9.40;;;;;;5052639;28;20078;-66
2021/10/07 09:50:23;;;;;;;8.20;6.95;;;12.90;10.70;;;;;;5054644;28;20045;-68
2021/10/07 09:52:59;;;;;;;8.15;6.95;;;13.00;9.50;;;;;;5052225;28;20048;-68
2021/10/07 09:55:29;;;;;;;9.07;7.00;;;12.70;10.50;;;;;;5047401;28;20063;-67
2021/10/07 09:58:00;;;;;;;11.95;6.30;;;12.90;9.80;;;;;;5050653;28;20132;-68
2021/10/07 10:00:36;;;;;;;6.53;5.80;;;12.80;9.40;;;;;;5049104;28;20132;-68
2021/10/07 10:03:08;;;;;;;10.75;5.93;;;12.90;8.60;;;;;;5051339;28;20404;-68
2021/10/07 10:05:42;;;;;;;11.80;6.13;;;12.90;8.30;;;;;;5049331;28;20157;-68
2021/10/07 10:08:13;;;;;;;8.57;5.82;;;13.00;7.70;;;;;;5051108;28;20044;-67
2021/10/07 10:10:44;;;;;;;10.38;6.68;;;12.90;8.90;;;;;;5052919;28;20079;-68
2021/10/07 10:13:13;;;;;;;7.07;6.28;;;12.90;10.30;;;;;;5054458;28;20067;-67
2021/10/07 10:15:45;;;;;;;8.63;6.40;;;12.80;9.70;;;;;;5052343;28;20071;-68
2021/10/07 10:18:16;;;;;;;11.52;6.75;;;12.90;9.70;;;;;;5049641;28;20794;-68
2021/10/07 10:20:48;;;;;;;8.25;6.88;;;12.60;9.50;;;;;;5048992;28;20103;-67
2021/10/07 10:23:21;;;;;;;10.95;7.00;;;12.90;11.30;;;;;;5058649;28;20604;-68
2021/10/07 10:25:55;;;;;;;10.57;6.95;;;13.10;9.90;;;;;;5066359;28;20068;-67
2021/10/07 10:28:46;;;;;;;7.05;6.28;;;13.40;9.70;;;;;;5057310;28;20078;-67
2021/10/07 10:31:29;;;;;;;9.18;6.68;;;12.90;9.30;;;;;;5067407;28;20064;-69
2021/10/07 10:34:05;;;;;;;9.77;7.05;;;13.10;9.90;;;;;;5070260;28;20109;-68
2021/10/07 10:36:36;;;;;;;13.15;6.50;;;13.30;8.70;;;;;;5070404;28;20110;-67
2021/10/07 10:39:08;;;;;;;9.40;7.60;;;13.40;7.70;;;;;;5068537;28;20062;-68
2021/10/07 10:41:50;;;;;;;9.23;6.55;;;13.30;8.10;;;;;;5066467;28;20040;-67
2021/10/07 10:44:41;;;;;;;8.45;6.45;;;13.40;8.10;;;;;;5071068;28;20054;-67
2021/10/07 10:47:19;;;;;;;8.27;6.28;;;13.40;7.10;;;;;;5067366;28;20079;-68
2021/10/07 10:50:03;;;;;;;8.35;5.78;;;13.50;5.90;;;;;;5069997;28;20090;-68
2021/10/07 10:52:34;;;;;;;6.53;5.38;;;13.40;6.40;;;;;;5070141;28;20075;-67
2021/10/07 10:55:08;;;;;;;8.30;6.10;;;13.40;6.40;;;;;;5050137;28;20057;-68
2021/10/07 10:57:38;;;;;;;8.10;6.07;;;13.60;5.30;;;;;;5069926;28;20059;-68
2021/10/07 11:00:16;;;;;;;6.88;5.72;;;13.70;5.10;;;;;;5072596;28;20409;-69
2021/10/07 11:02:46;;;;;;;9.32;6.22;;;13.70;4.60;;;;;;5067420;28;20090;-67
2021/10/07 11:05:25;;;;;;;14.15;7.03;;;13.60;4.70;;;;;;5066901;28;20056;-68
2021/10/07 11:08:18;;;;;;;9.30;6.97;;;13.60;4.10;;;;;;5056285;28;20048;-68
2021/10/07 11:11:05;;;;;;;7.35;6.25;;;13.70;4.00;;;;;;5070844;28;20220;-67
2021/10/07 11:13:46;;;;;;;6.93;5.25;;;13.60;3.10;;;;;;5065522;28;20131;-66
2021/10/07 11:16:17;;;;;;;7.05;6.35;;;13.70;3.10;;;;;;5070845;28;20085;-68
2021/10/07 11:18:47;;;;;;;7.55;5.00;;;13.90;2.90;;;;;;5068854;28;20041;-69
2021/10/07 11:21:22;;;;;;;6.43;5.43;;;13.80;2.30;;;;;;5073028;28;20475;-69
2021/10/07 11:23:52;;;;;;;10.20;5.78;;;13.90;2.10;;;;;;5068617;28;20117;-68
2021/10/07 11:26:31;;;;;;;9.77;5.93;;;14.20;1.00;;;;;;5066976;28;20079;-67
2021/10/07 11:28:59;;;;;;;11.38;5.20;;;14.20;1.70;;;;;;5068186;28;20055;-67
2021/10/07 11:31:27;;;;;;;7.65;5.43;;;14.10;1.00;;;;;;5070246;28;20076;-68
2021/10/07 11:34:00;;;;;;;6.70;5.03;;;14.30;1.00;;;;;;5069988;28;20048;-68
2021/10/07 11:36:32;;;;;;;7.70;5.13;;;14.20;1.00;;;;;;5064199;28;20049;-67
2021/10/07 11:39:01;;;;;;;6.40;5.53;;;14.10;1.00;;;;;;5071713;28;20039;-68
2021/10/07 11:41:34;;;;;;;6.32;5.05;;;14.20;1.00;;;;;;5069868;28;20060;-68
2021/10/07 11:44:03;;;;;;;5.80;4.70;;;14.40;1.00;;;;;;5050831;28;20036;-68
2021/10/07 11:46:35;;;;;;;5.30;4.30;;;14.20;1.00;;;;;;5068679;28;20044;-69
2021/10/07 11:49:09;;;;;;;8.48;4.50;;;14.30;1.00;;;;;;5066363;28;20534;-67
2021/10/07 11:51:41;;;;;;;7.53;4.50;;;14.10;1.00;;;;;;5067609;28;20127;-68
2021/10/07 11:54:19;;;;;;;6.30;4.50;;;14.30;1.00;;;;;;5065795;28;20044;-68
2021/10/07 11:56:52;;;;;;;5.38;4.38;;;13.80;1.00;;;;;;5067088;28;20463;-68
2021/10/07 11:59:21;;;;;;;6.10;4.50;;;14.10;1.00;;;;;;5068379;28;20032;-68
2021/10/07 12:01:50;;;;;;;7.40;5.32;;;14.30;1.00;;;;;;5070576;28;20090;-67
2021/10/07 12:04:21;;;;;;;6.70;5.55;;;14.20;1.00;;;;;;5065954;28;20045;-68
2021/10/07 12:06:49;;;;;;;6.70;5.32;;;14.30;1.00;;;;;;5061537;28;20053;-68
2021/10/07 12:09:19;;;;;;;6.13;5.53;;;14.20;1.00;;;;;;5069050;28;20052;-68
2021/10/07 12:11:51;;;;;;;8.82;5.45;;;14.20;1.00;;;;;;5066393;28;20150;-69
2021/10/07 12:14:22;;;;;;;7.20;5.63;;;14.00;1.00;;;;;;5071008;28;20052;-66
2021/10/07 12:16:53;;;;;;;5.25;4.20;;;14.20;1.00;;;;;;5068269;28;20055;-67
2021/10/07 12:19:27;;;;;;;7.78;4.82;;;14.40;1.00;;;;;;5065930;28;20109;-68
2021/10/07 12:22:02;;;;;;;5.15;4.10;;;14.40;1.00;;;;;;5072908;28;20039;-68
2021/10/07 12:24:31;;;;;;;6.53;4.40;;;14.30;1.00;;;;;;5068460;28;20067;-67
2021/10/07 12:27:02;;;;;;;4.78;4.25;;;14.10;1.00;;;;;;5067248;28;20055;-68
2021/10/07 12:29:34;;;;;;;4.72;4.28;;;14.50;1.00;;;;;;5067688;28;20476;-70
2021/10/07 12:32:12;;;;;;;4.55;3.88;;;14.50;1.00;;;;;;5064125;28;20046;-67
2021/10/07 12:34:45;;;;;;;6.43;3.83;;;14.40;1.00;;;;;;5067410;28;20527;-66
2021/10/07 12:37:17;;;;;;;9.35;4.78;;;14.40;1.00;;;;;;5069241;28;20494;-67
2021/10/07 12:39:47;;;;;;;6.25;4.43;;;14.30;1.00;;;;;;5071215;28;20075;-67
2021/10/07 12:42:17;;;;;;;6.97;4.50;;;14.50;1.00;;;;;;5065662;28;20278;-68
2021/10/07 12:44:52;;;;;;;5.10;4.40;;;14.70;1.00;;;;;;5069394;28;20063;-68
2021/10/07 12:47:27;;;;;;;6.78;3.80;;;14.40;1.00;;;;;;5066565;28;20499;-68
2021/10/07 12:49:57;;;;;;;6.43;4.32;;;14.60;1.00;;;;;;5065057;28;20483;-68
2021/10/07 12:52:29;;;;;;;6.68;3.92;;;14.60;1.00;;;;;;5071990;28;20135;-68
2021/10/07 12:55:01;;;;;;;6.53;4.75;;;14.80;1.00;;;;;;5049283;28;20048;-67
2021/10/07 12:57:41;;;;;;;6.00;3.97;;;14.50;1.00;;;;;;5066943;28;20105;-68
2021/10/07 13:00:20;;;;;;;3.55;3.10;;;14.60;1.00;;;;;;5066525;28;20044;-68
2021/10/07 13:02:49;;;;;;;4.13;3.05;;;14.50;1.00;;;;;;5068192;28;20132;-68
2021/10/07 13:05:25;;;;;;;3.67;2.60;;;14.70;1.00;;;;;;5061043;28;20061;-67
2021/10/07 13:08:00;;;;;;;4.20;3.10;;;14.60;1.00;;;;;;5070960;28;20538;-68
2021/10/07 13:10:31;;;;;;;3.38;3.08;;;14.70;1.00;;;;;;5071985;28;21449;-67